Hlavní strana
METAR-TAF:

METAR-TAF

Letiště :

Porto Alegre, Rio Grande do Sul, Brazílie

zeměpisná šířka: 30-00S, zeměpisná délka: 051-11W, výška: 3 m

Aktuální stav počasí

Zpráva byla vytvořena před 51 minutami, v 20:00 UTC
Východoseverovýchodní vítr 4 kt
Teplota 28°C
Vlhkost vzduchu 55%
Tlak 1011 hPa
Viditelnost 10 km a více
Žádná oblačnost pod 1500 m, nevyskytují se cumulonimby.

METAR: SBPA 192000Z 06004KT CAVOK 28/18 Q1011

Čas: 17:51 (20:51 UTC)

Předpověď počasí

Zpráva byla vytvořena před 4 hodinami a 36 minutami, v 16:15 UTC
Předpověď platná od 19 v 18 UTC do 20 v 18 UTC
Severní vítr 6 kt
Viditelnost 10 km a více
Žádná oblačnost pod 1500 m, nevyskytují se cumulonimby.
Změna
od 20 v 14 UTC do 20 v 16 UTC
Západojihozápadní vítr 10 kt

TAF: SBPA 191615Z 1918/2018 35006KT CAVOK TN16/2009Z TX30/2017Z BECMG 2014/2016 24010KT RMK PCX

Stav a předpovědi počasí z více než 4 000 letišť (zprávy METAR a TAF).

Červené a žluté tečky na mapě představují dostupné meteorologické stanice.

Když kurzor umístíte na tečku, zobrazí se název stanice.

Pak kliknutím zobrazíte stav a předpověď počasí.

Chcete-li změnit mapu, kliknutím na zelené tlačítko se znaménkem +mapu přiblížíte, kliknutím na zelené tlačítko se znaménkem – mapu oddálíte a kliknutím na zelené šipky přejdete na sousední mapy.


METAR-TAF: